createdAt,value
2023-01-11T00:00:23.000Z,277.21
2023-01-11T00:01:49.000Z,277.21
2023-01-11T00:03:56.000Z,277.21
2023-01-11T00:05:22.000Z,277.21
2023-01-11T00:07:28.000Z,277.27
2023-01-11T00:10:19.000Z,277.27
2023-01-11T00:11:46.000Z,277.27
2023-01-11T00:13:52.000Z,277.34
2023-01-11T00:15:19.000Z,277.34
2023-01-11T00:17:25.000Z,277.34
2023-01-11T00:18:51.000Z,277.34
2023-01-11T00:20:57.000Z,277.34
2023-01-11T00:22:24.000Z,277.4
2023-01-11T00:24:30.000Z,277.4
2023-01-11T00:25:56.000Z,277.4
2023-01-11T00:28:03.000Z,277.4
2023-01-11T00:29:29.000Z,277.4
2023-01-11T00:31:35.000Z,277.4
2023-01-11T00:33:02.000Z,277.4
2023-01-11T00:35:08.000Z,277.4
2023-01-11T00:36:35.000Z,277.4
2023-01-11T00:38:41.000Z,277.4
2023-01-11T00:40:08.000Z,277.4
2023-01-11T00:42:14.000Z,277.4
2023-01-11T00:43:40.000Z,277.4
2023-01-11T00:45:46.000Z,277.4
2023-01-11T00:48:37.000Z,277.4
2023-01-11T00:50:04.000Z,277.4
2023-01-11T00:52:10.000Z,277.4
2023-01-11T00:53:37.000Z,277.4
2023-01-11T00:55:43.000Z,277.4
2023-01-11T00:57:09.000Z,277.4
2023-01-11T00:59:15.000Z,277.46
2023-01-11T01:00:42.000Z,277.4
2023-01-11T01:02:48.000Z,277.4
2023-01-11T01:04:15.000Z,277.46
2023-01-11T01:06:21.000Z,277.46
2023-01-11T01:07:47.000Z,277.46
2023-01-11T01:09:53.000Z,277.52
2023-01-11T01:11:20.000Z,277.52
2023-01-11T01:13:26.000Z,277.59
2023-01-11T01:14:53.000Z,277.59
2023-01-11T01:16:59.000Z,277.65
2023-01-11T01:18:25.000Z,277.59
2023-01-11T01:20:31.000Z,277.65
2023-01-11T01:21:58.000Z,277.65
2023-01-11T01:24:04.000Z,277.65
2023-01-11T01:26:55.000Z,277.65
2023-01-11T01:28:22.000Z,277.65
2023-01-11T01:30:28.000Z,277.65
2023-01-11T01:31:54.000Z,277.65
2023-01-11T01:34:00.000Z,277.65
2023-01-11T01:35:27.000Z,277.65
2023-01-11T01:37:33.000Z,277.71
2023-01-11T01:39:00.000Z,277.71
2023-01-11T01:41:06.000Z,277.77
2023-01-11T01:42:32.000Z,277.71
2023-01-11T01:44:38.000Z,277.71
2023-01-11T01:46:05.000Z,277.77
2023-01-11T01:48:11.000Z,277.77
2023-01-11T01:49:38.000Z,277.71
2023-01-11T01:51:44.000Z,277.77
2023-01-11T01:53:10.000Z,277.77
2023-01-11T01:55:16.000Z,277.77
2023-01-11T01:56:43.000Z,277.77
2023-01-11T01:58:49.000Z,277.77
2023-01-11T02:00:15.000Z,277.77
2023-01-11T02:02:22.000Z,277.77
2023-01-11T02:05:13.000Z,277.77
2023-01-11T02:06:39.000Z,277.77
2023-01-11T02:08:46.000Z,277.77
2023-01-11T02:10:12.000Z,277.77
2023-01-11T02:12:18.000Z,277.77
2023-01-11T02:13:45.000Z,277.77
2023-01-11T02:15:51.000Z,277.77
2023-01-11T02:17:18.000Z,277.77
2023-01-11T02:19:24.000Z,277.77
2023-01-11T02:20:50.000Z,277.84
2023-01-11T02:22:56.000Z,277.84
2023-01-11T02:24:23.000Z,277.9
2023-01-11T02:26:29.000Z,277.9
2023-01-11T02:27:56.000Z,277.9
2023-01-11T02:30:02.000Z,277.96
2023-01-11T02:31:28.000Z,277.96
2023-01-11T02:33:34.000Z,277.9
2023-01-11T02:35:01.000Z,277.9
2023-01-11T02:37:07.000Z,277.9
2023-01-11T02:38:34.000Z,277.9
2023-01-11T02:40:40.000Z,277.96
2023-01-11T02:43:31.000Z,277.96
2023-01-11T02:44:57.000Z,277.96
2023-01-11T02:47:03.000Z,277.96
2023-01-11T02:48:30.000Z,277.96
2023-01-11T02:50:36.000Z,277.96
2023-01-11T02:52:03.000Z,277.96
2023-01-11T02:54:09.000Z,277.96
2023-01-11T02:55:36.000Z,277.96
2023-01-11T02:57:42.000Z,277.96
2023-01-11T02:59:08.000Z,277.96
2023-01-11T03:01:14.000Z,278.02
2023-01-11T03:02:41.000Z,278.09
2023-01-11T03:04:47.000Z,278.09
2023-01-11T03:06:14.000Z,278.09
2023-01-11T03:08:20.000Z,278.09
2023-01-11T03:09:46.000Z,278.09
2023-01-11T03:11:52.000Z,278.09
2023-01-11T03:13:19.000Z,278.09
2023-01-11T03:15:25.000Z,278.15
2023-01-11T03:16:52.000Z,278.21
2023-01-11T03:18:58.000Z,278.21
2023-01-11T03:21:49.000Z,278.27
2023-01-11T03:23:16.000Z,278.27
2023-01-11T03:25:22.000Z,278.34
2023-01-11T03:26:48.000Z,278.34
2023-01-11T03:28:54.000Z,278.4
2023-01-11T03:30:21.000Z,278.4
2023-01-11T03:32:27.000Z,278.34
2023-01-11T03:33:54.000Z,278.34
2023-01-11T03:36:00.000Z,278.4
2023-01-11T03:37:26.000Z,278.4
2023-01-11T03:39:32.000Z,278.34
2023-01-11T03:40:59.000Z,278.27
2023-01-11T03:43:05.000Z,278.4
2023-01-11T03:44:32.000Z,278.34
2023-01-11T03:46:38.000Z,278.34
2023-01-11T03:48:04.000Z,278.27
2023-01-11T03:50:11.000Z,278.27
2023-01-11T03:51:37.000Z,278.27
2023-01-11T03:53:43.000Z,278.27
2023-01-11T03:55:10.000Z,278.34
2023-01-11T03:57:16.000Z,278.34
2023-01-11T04:00:08.000Z,278.34
2023-01-11T04:01:34.000Z,278.34
2023-01-11T04:03:40.000Z,278.27
2023-01-11T04:05:07.000Z,278.27
2023-01-11T04:07:13.000Z,278.34
2023-01-11T04:08:40.000Z,278.34
2023-01-11T04:10:46.000Z,278.27
2023-01-11T04:12:12.000Z,278.27
2023-01-11T04:14:18.000Z,278.27
2023-01-11T04:15:45.000Z,278.34
2023-01-11T04:17:51.000Z,278.34
2023-01-11T04:19:17.000Z,278.4
2023-01-11T04:21:24.000Z,278.34
2023-01-11T04:22:50.000Z,278.4
2023-01-11T04:24:56.000Z,278.4
2023-01-11T04:26:23.000Z,278.4
2023-01-11T04:28:29.000Z,278.52
2023-01-11T04:29:55.000Z,278.46
2023-01-11T04:32:01.000Z,278.52
2023-01-11T04:33:28.000Z,278.46
2023-01-11T04:35:34.000Z,278.46
2023-01-11T04:38:25.000Z,278.46
2023-01-11T04:39:52.000Z,278.46
2023-01-11T04:41:58.000Z,278.52
2023-01-11T04:43:24.000Z,278.59
2023-01-11T04:45:30.000Z,278.59
2023-01-11T04:46:57.000Z,278.59
2023-01-11T04:49:03.000Z,278.59
2023-01-11T04:50:30.000Z,278.59
2023-01-11T04:52:36.000Z,278.59
2023-01-11T04:54:02.000Z,278.59
2023-01-11T04:56:08.000Z,278.65
2023-01-11T04:57:35.000Z,278.65
2023-01-11T04:59:41.000Z,278.71
2023-01-11T05:01:07.000Z,278.65
2023-01-11T05:03:14.000Z,278.71
2023-01-11T05:04:40.000Z,278.65
2023-01-11T05:06:46.000Z,278.77
2023-01-11T05:08:13.000Z,278.71
2023-01-11T05:10:19.000Z,278.77
2023-01-11T05:11:46.000Z,278.77
2023-01-11T05:13:52.000Z,278.84
2023-01-11T05:16:43.000Z,278.84
2023-01-11T05:18:10.000Z,278.84
2023-01-11T05:20:17.000Z,278.9
2023-01-11T05:21:43.000Z,278.9
2023-01-11T05:23:49.000Z,278.96
2023-01-11T05:25:16.000Z,278.9
2023-01-11T05:27:22.000Z,278.96
2023-01-11T05:28:49.000Z,278.96
2023-01-11T05:30:55.000Z,278.96
2023-01-11T05:32:21.000Z,279.02
2023-01-11T05:34:27.000Z,279.09
2023-01-11T05:35:54.000Z,279.02
2023-01-11T05:38:00.000Z,279.09
2023-01-11T05:39:26.000Z,279.09
2023-01-11T05:41:33.000Z,279.27
2023-01-11T05:42:59.000Z,279.21
2023-01-11T05:45:05.000Z,279.27
2023-01-11T05:46:32.000Z,279.21
2023-01-11T05:48:38.000Z,279.27
2023-01-11T05:50:05.000Z,279.34
2023-01-11T05:52:11.000Z,279.34
2023-01-11T05:55:02.000Z,279.34
2023-01-11T05:56:29.000Z,279.4
2023-01-11T05:58:35.000Z,279.4
2023-01-11T06:00:01.000Z,279.46
2023-01-11T06:02:07.000Z,279.46
2023-01-11T06:03:34.000Z,279.46
2023-01-11T06:05:40.000Z,279.52
2023-01-11T06:07:07.000Z,279.52
2023-01-11T06:09:13.000Z,279.52
2023-01-11T06:10:39.000Z,279.46
2023-01-11T06:12:45.000Z,279.59
2023-01-11T06:14:12.000Z,279.59
2023-01-11T06:16:18.000Z,279.59
2023-01-11T06:17:45.000Z,279.65
2023-01-11T06:19:51.000Z,279.71
2023-01-11T06:21:17.000Z,279.65
2023-01-11T06:23:23.000Z,279.65
2023-01-11T06:24:50.000Z,279.71
2023-01-11T06:26:56.000Z,279.65
2023-01-11T06:28:22.000Z,279.59
2023-01-11T06:30:28.000Z,279.65
2023-01-11T06:33:20.000Z,279.71
2023-01-11T06:34:46.000Z,279.71
2023-01-11T06:36:52.000Z,279.71
2023-01-11T06:38:19.000Z,279.77
2023-01-11T06:40:25.000Z,279.84
2023-01-11T06:41:52.000Z,279.84
2023-01-11T06:43:58.000Z,279.77
2023-01-11T06:45:24.000Z,279.71
2023-01-11T06:47:30.000Z,279.65
2023-01-11T06:48:57.000Z,279.71
2023-01-11T06:51:03.000Z,279.77
2023-01-11T06:52:30.000Z,279.84
2023-01-11T06:54:36.000Z,279.84
2023-01-11T06:56:02.000Z,279.84
2023-01-11T06:58:09.000Z,279.9
2023-01-11T06:59:35.000Z,279.9
2023-01-11T07:01:42.000Z,279.9
2023-01-11T07:03:09.000Z,279.9
2023-01-11T07:05:15.000Z,279.9
2023-01-11T07:06:43.000Z,279.84
2023-01-11T07:08:50.000Z,279.9
2023-01-11T07:11:41.000Z,280.02
2023-01-11T07:13:08.000Z,280.09
2023-01-11T07:15:14.000Z,280.21
2023-01-11T07:16:40.000Z,280.21
2023-01-11T07:18:46.000Z,280.09
2023-01-11T07:20:13.000Z,280.15
2023-01-11T07:22:19.000Z,280.15
2023-01-11T07:23:46.000Z,280.15
2023-01-11T07:25:52.000Z,280.21
2023-01-11T07:27:18.000Z,280.21
2023-01-11T07:29:24.000Z,280.21
2023-01-11T07:30:51.000Z,280.15
2023-01-11T07:33:03.000Z,280.34
2023-01-11T07:34:29.000Z,280.34
2023-01-11T07:36:35.000Z,280.34
2023-01-11T07:38:02.000Z,280.34
2023-01-11T07:40:08.000Z,280.4
2023-01-11T07:41:35.000Z,280.46
2023-01-11T07:43:43.000Z,280.4
2023-01-11T07:45:09.000Z,280.34
2023-01-11T07:47:16.000Z,280.34
2023-01-11T07:50:06.000Z,280.4
2023-01-11T07:51:33.000Z,280.4
2023-01-11T07:53:39.000Z,280.4
2023-01-11T07:55:06.000Z,280.46
2023-01-11T07:57:12.000Z,280.4
2023-01-11T07:58:38.000Z,280.52
2023-01-11T08:00:44.000Z,280.46
2023-01-11T08:02:11.000Z,280.52
2023-01-11T08:04:17.000Z,280.52
2023-01-11T08:05:43.000Z,280.52
2023-01-11T08:07:50.000Z,280.59
2023-01-11T08:09:16.000Z,280.52
2023-01-11T08:11:22.000Z,280.52
2023-01-11T08:12:49.000Z,280.52
2023-01-11T08:14:55.000Z,280.59
2023-01-11T08:16:22.000Z,280.59
2023-01-11T08:18:28.000Z,280.59
2023-01-11T08:19:55.000Z,280.59
2023-01-11T08:22:01.000Z,280.65
2023-01-11T08:23:27.000Z,280.65
2023-01-11T08:25:33.000Z,280.65
2023-01-11T08:28:25.000Z,280.65
2023-01-11T08:29:51.000Z,280.65
2023-01-11T08:31:57.000Z,280.65
2023-01-11T08:33:24.000Z,280.65
2023-01-11T08:35:30.000Z,280.71
2023-01-11T08:36:57.000Z,280.71
2023-01-11T08:39:03.000Z,280.71
2023-01-11T08:40:29.000Z,280.71
2023-01-11T08:42:35.000Z,280.71
2023-01-11T08:44:02.000Z,280.77
2023-01-11T08:46:08.000Z,280.71
2023-01-11T08:47:35.000Z,280.71
2023-01-11T08:49:41.000Z,280.65
2023-01-11T08:51:07.000Z,280.71
2023-01-11T08:53:13.000Z,280.77
2023-01-11T08:54:40.000Z,280.77
2023-01-11T08:56:46.000Z,280.77
2023-01-11T08:58:13.000Z,280.77
2023-01-11T09:00:19.000Z,280.77
2023-01-11T09:01:45.000Z,280.84
2023-01-11T09:03:52.000Z,280.77
2023-01-11T09:06:43.000Z,280.84
2023-01-11T09:08:09.000Z,280.84
2023-01-11T09:10:16.000Z,280.84
2023-01-11T09:11:42.000Z,280.9
2023-01-11T09:13:48.000Z,280.84
2023-01-11T09:15:15.000Z,280.84
2023-01-11T09:17:21.000Z,280.84
2023-01-11T09:18:48.000Z,280.84
2023-01-11T09:20:54.000Z,280.9
2023-01-11T09:22:21.000Z,280.9
2023-01-11T09:24:27.000Z,280.9
2023-01-11T09:25:53.000Z,280.9
2023-01-11T09:27:59.000Z,280.96
2023-01-11T09:29:26.000Z,280.96
2023-01-11T09:31:32.000Z,280.9
2023-01-11T09:32:59.000Z,280.9
2023-01-11T09:35:05.000Z,280.96
2023-01-11T09:36:32.000Z,280.96
2023-01-11T09:38:38.000Z,280.9
2023-01-11T09:40:04.000Z,280.96
2023-01-11T09:42:10.000Z,280.96
2023-01-11T09:45:02.000Z,280.96
2023-01-11T09:46:28.000Z,281.02
2023-01-11T09:48:34.000Z,281.02
2023-01-11T09:50:01.000Z,281.02
2023-01-11T09:52:07.000Z,281.02
2023-01-11T09:53:34.000Z,281.02
2023-01-11T09:55:40.000Z,281.02
2023-01-11T09:57:07.000Z,281.02
2023-01-11T09:59:13.000Z,281.02
2023-01-11T10:00:39.000Z,281.02
2023-01-11T10:02:46.000Z,281.09
2023-01-11T10:04:12.000Z,281.15
2023-01-11T10:06:18.000Z,281.15
2023-01-11T10:07:47.000Z,281.15
2023-01-11T10:15:21.000Z,281.21
2023-01-11T10:20:46.000Z,281.15
2023-01-11T10:22:13.000Z,281.15
2023-01-11T10:24:19.000Z,281.21
2023-01-11T10:25:45.000Z,281.21
2023-01-11T10:27:51.000Z,281.21
2023-01-11T10:30:42.000Z,281.21
2023-01-11T10:32:09.000Z,281.21
2023-01-11T10:34:15.000Z,281.21
2023-01-11T10:35:42.000Z,281.21
2023-01-11T10:37:48.000Z,281.27
2023-01-11T10:39:14.000Z,281.27
2023-01-11T10:41:20.000Z,281.27
2023-01-11T10:42:47.000Z,281.27
2023-01-11T10:44:53.000Z,281.27
2023-01-11T10:46:19.000Z,281.27
2023-01-11T10:48:26.000Z,281.27
2023-01-11T10:49:52.000Z,281.34
2023-01-11T10:51:58.000Z,281.34
2023-01-11T10:53:25.000Z,281.27
2023-01-11T10:56:57.000Z,281.27
2023-01-11T10:59:08.000Z,281.34
2023-01-11T11:00:35.000Z,281.4
2023-01-11T11:02:41.000Z,281.34
2023-01-11T11:04:08.000Z,281.4
2023-01-11T11:06:14.000Z,281.4
2023-01-11T11:09:05.000Z,281.4
2023-01-11T11:10:32.000Z,281.4
2023-01-11T11:12:38.000Z,281.4
2023-01-11T11:14:04.000Z,281.46
2023-01-11T11:16:10.000Z,281.52
2023-01-11T11:17:37.000Z,281.52
2023-01-11T11:19:43.000Z,281.59
2023-01-11T11:21:10.000Z,281.65
2023-01-11T11:23:16.000Z,281.65
2023-01-11T11:24:43.000Z,281.65
2023-01-11T11:26:49.000Z,281.65
2023-01-11T11:28:15.000Z,281.65
2023-01-11T11:30:21.000Z,281.71
2023-01-11T11:31:48.000Z,281.71
2023-01-11T11:33:54.000Z,281.71
2023-01-11T11:35:21.000Z,281.71
2023-01-11T11:37:27.000Z,281.65
2023-01-11T11:38:54.000Z,281.71
2023-01-11T11:41:00.000Z,281.65
2023-01-11T11:42:26.000Z,281.65
2023-01-11T11:44:32.000Z,281.59
2023-01-11T11:47:24.000Z,281.52
2023-01-11T11:48:50.000Z,281.52
2023-01-11T11:50:56.000Z,281.52
2023-01-11T11:52:23.000Z,281.52
2023-01-11T11:54:29.000Z,281.52
2023-01-11T11:55:56.000Z,281.52
2023-01-11T11:58:02.000Z,281.52
2023-01-11T11:59:28.000Z,281.52
2023-01-11T12:01:34.000Z,281.59
2023-01-11T12:03:01.000Z,281.59
2023-01-11T12:05:07.000Z,281.59
2023-01-11T12:06:34.000Z,281.59
2023-01-11T12:08:40.000Z,281.52
2023-01-11T12:10:06.000Z,281.52
2023-01-11T12:12:12.000Z,281.52
2023-01-11T12:13:39.000Z,281.52
2023-01-11T12:15:45.000Z,281.46
2023-01-11T12:17:12.000Z,281.46
2023-01-11T12:19:18.000Z,281.46
2023-01-11T12:20:44.000Z,281.46
2023-01-11T12:22:50.000Z,281.46
2023-01-11T12:25:41.000Z,281.46
2023-01-11T12:27:08.000Z,281.46
2023-01-11T12:29:14.000Z,281.46
2023-01-11T12:30:40.000Z,281.46
2023-01-11T12:32:47.000Z,281.46
2023-01-11T12:34:13.000Z,281.52
2023-01-11T12:36:19.000Z,281.46
2023-01-11T12:37:46.000Z,281.46
2023-01-11T12:39:52.000Z,281.4
2023-01-11T12:41:18.000Z,281.46
2023-01-11T12:43:24.000Z,281.4
2023-01-11T12:44:51.000Z,281.46
2023-01-11T12:46:57.000Z,281.4
2023-01-11T12:48:24.000Z,281.4
2023-01-11T12:50:30.000Z,281.4
2023-01-11T12:51:57.000Z,281.4
2023-01-11T12:54:03.000Z,281.4
2023-01-11T12:55:29.000Z,281.4
2023-01-11T12:57:35.000Z,281.4
2023-01-11T12:59:02.000Z,281.4
2023-01-11T13:01:08.000Z,281.4
2023-01-11T13:03:59.000Z,281.4
2023-01-11T13:05:25.000Z,281.46
2023-01-11T13:07:31.000Z,281.46
2023-01-11T13:08:58.000Z,281.4
2023-01-11T13:11:04.000Z,281.46
2023-01-11T13:12:31.000Z,281.46
2023-01-11T13:14:37.000Z,281.46
2023-01-11T13:16:03.000Z,281.46
2023-01-11T13:18:09.000Z,281.46
2023-01-11T13:19:36.000Z,281.52
2023-01-11T13:21:42.000Z,281.52
2023-01-11T13:23:09.000Z,281.52
2023-01-11T13:25:15.000Z,281.52
2023-01-11T13:26:41.000Z,281.52
2023-01-11T13:28:48.000Z,281.52
2023-01-11T13:30:14.000Z,281.59
2023-01-11T13:32:20.000Z,281.52
2023-01-11T13:33:47.000Z,281.52
2023-01-11T13:35:53.000Z,281.52
2023-01-11T13:37:20.000Z,281.52
2023-01-11T13:39:26.000Z,281.52
2023-01-11T13:42:17.000Z,281.46
2023-01-11T13:43:43.000Z,281.46
2023-01-11T13:45:49.000Z,281.52
2023-01-11T13:47:16.000Z,281.52
2023-01-11T13:49:22.000Z,281.52
2023-01-11T13:50:49.000Z,281.52
2023-01-11T13:52:55.000Z,281.46
2023-01-11T13:54:21.000Z,281.46
2023-01-11T13:56:27.000Z,281.4
2023-01-11T13:57:54.000Z,281.34
2023-01-11T14:00:00.000Z,281.27
2023-01-11T14:01:27.000Z,281.21
2023-01-11T14:03:33.000Z,281.15
2023-01-11T14:05:00.000Z,281.15
2023-01-11T14:07:06.000Z,281.09
2023-01-11T14:08:32.000Z,281.09
2023-01-11T14:10:40.000Z,281.02
2023-01-11T14:12:06.000Z,281.02
2023-01-11T14:14:13.000Z,281.02
2023-01-11T14:15:40.000Z,281.09
2023-01-11T14:17:46.000Z,281.09
2023-01-11T14:20:37.000Z,281.09
2023-01-11T14:22:04.000Z,281.09
2023-01-11T14:24:10.000Z,281.09
2023-01-11T14:25:36.000Z,281.09
2023-01-11T14:27:42.000Z,281.09
2023-01-11T14:29:09.000Z,281.09
2023-01-11T14:31:15.000Z,281.09
2023-01-11T14:32:42.000Z,281.09
2023-01-11T14:34:48.000Z,280.96
2023-01-11T14:36:14.000Z,281.02
2023-01-11T14:38:21.000Z,281.02
2023-01-11T14:39:47.000Z,281.02
2023-01-11T14:41:53.000Z,280.96
2023-01-11T14:43:20.000Z,281.02
2023-01-11T14:45:26.000Z,280.96
2023-01-11T14:46:53.000Z,280.96
2023-01-11T14:48:59.000Z,280.9
2023-01-11T14:50:25.000Z,280.9
2023-01-11T14:52:32.000Z,280.96
2023-01-11T14:54:04.000Z,280.84
2023-01-11T14:56:11.000Z,280.96
2023-01-11T14:59:02.000Z,280.96
2023-01-11T15:00:28.000Z,280.96
2023-01-11T15:02:34.000Z,280.84
2023-01-11T15:04:01.000Z,280.84
2023-01-11T15:06:07.000Z,280.84
2023-01-11T15:07:34.000Z,280.84
2023-01-11T15:09:40.000Z,280.84
2023-01-11T15:11:06.000Z,280.77
2023-01-11T15:13:12.000Z,280.84
2023-01-11T15:14:39.000Z,280.9
2023-01-11T15:16:45.000Z,280.84
2023-01-11T15:18:11.000Z,280.9
2023-01-11T15:20:18.000Z,280.84
2023-01-11T15:21:44.000Z,280.84
2023-01-11T15:23:50.000Z,280.71
2023-01-11T15:25:17.000Z,280.65
2023-01-11T15:27:23.000Z,280.59
2023-01-11T15:28:50.000Z,280.59
2023-01-11T15:30:56.000Z,280.59
2023-01-11T15:32:22.000Z,280.65
2023-01-11T15:34:28.000Z,280.65
2023-01-11T15:37:20.000Z,280.71
2023-01-11T15:38:46.000Z,280.65
2023-01-11T15:40:52.000Z,280.59
2023-01-11T15:42:19.000Z,280.52
2023-01-11T15:44:25.000Z,280.59
2023-01-11T15:45:52.000Z,280.59
2023-01-11T15:47:58.000Z,280.59
2023-01-11T15:49:24.000Z,280.59
2023-01-11T15:51:30.000Z,280.52
2023-01-11T15:52:57.000Z,280.52
2023-01-11T15:55:03.000Z,280.4
2023-01-11T15:56:30.000Z,280.34
2023-01-11T15:58:36.000Z,280.27
2023-01-11T16:00:02.000Z,280.4
2023-01-11T16:02:09.000Z,280.34
2023-01-11T16:03:35.000Z,280.4
2023-01-11T16:05:41.000Z,280.34
2023-01-11T16:07:08.000Z,280.34
2023-01-11T16:09:14.000Z,280.27
2023-01-11T16:10:41.000Z,280.27
2023-01-11T16:12:47.000Z,280.27
2023-01-11T16:15:38.000Z,280.27
2023-01-11T16:17:05.000Z,280.34
2023-01-11T16:19:11.000Z,280.21
2023-01-11T16:20:37.000Z,280.21
2023-01-11T16:22:43.000Z,280.21
2023-01-11T16:24:10.000Z,280.21
2023-01-11T16:26:16.000Z,280.21
2023-01-11T16:27:43.000Z,280.21
2023-01-11T16:29:49.000Z,280.15
2023-01-11T16:31:15.000Z,280.09
2023-01-11T16:33:21.000Z,280.09
2023-01-11T16:34:48.000Z,280.09
2023-01-11T16:36:54.000Z,280.21
2023-01-11T16:38:21.000Z,280.15
2023-01-11T16:40:27.000Z,280.15
2023-01-11T16:41:54.000Z,280.15
2023-01-11T16:44:00.000Z,280.21
2023-01-11T16:45:26.000Z,280.21
2023-01-11T16:47:32.000Z,280.27
2023-01-11T16:48:59.000Z,280.21
2023-01-11T16:51:05.000Z,280.15
2023-01-11T16:53:57.000Z,280.09
2023-01-11T16:55:23.000Z,280.15
2023-01-11T16:57:29.000Z,280.21
2023-01-11T16:58:56.000Z,280.15
2023-01-11T17:01:02.000Z,280.09
2023-01-11T17:02:29.000Z,280.09
2023-01-11T17:04:35.000Z,280.09
2023-01-11T17:06:02.000Z,280.09
2023-01-11T17:08:08.000Z,280.09
2023-01-11T17:09:34.000Z,280.02
2023-01-11T17:11:40.000Z,279.96
2023-01-11T17:13:07.000Z,279.96
2023-01-11T17:15:13.000Z,279.96
2023-01-11T17:16:40.000Z,279.96
2023-01-11T17:18:46.000Z,279.84
2023-01-11T17:20:13.000Z,279.84
2023-01-11T17:22:19.000Z,279.9
2023-01-11T17:23:45.000Z,279.84
2023-01-11T17:25:52.000Z,279.77
2023-01-11T17:27:18.000Z,279.77
2023-01-11T17:29:24.000Z,279.71
2023-01-11T17:32:15.000Z,279.65
2023-01-11T17:33:42.000Z,279.65
2023-01-11T17:35:48.000Z,279.59
2023-01-11T17:37:15.000Z,279.59
2023-01-11T17:39:21.000Z,279.52
2023-01-11T17:40:47.000Z,279.46
2023-01-11T17:42:53.000Z,279.46
2023-01-11T17:44:20.000Z,279.4
2023-01-11T17:46:26.000Z,279.4
2023-01-11T17:47:53.000Z,279.34
2023-01-11T17:49:59.000Z,279.27
2023-01-11T17:51:25.000Z,279.34
2023-01-11T17:53:31.000Z,279.4
2023-01-11T17:54:58.000Z,279.46
2023-01-11T17:57:04.000Z,279.46
2023-01-11T17:58:31.000Z,279.4
2023-01-11T18:00:37.000Z,279.4
2023-01-11T18:02:03.000Z,279.52
2023-01-11T18:04:10.000Z,279.52
2023-01-11T18:05:36.000Z,279.59
2023-01-11T18:07:42.000Z,279.52
2023-01-11T18:10:33.000Z,279.34
2023-01-11T18:12:00.000Z,279.34
2023-01-11T18:14:06.000Z,279.34
2023-01-11T18:15:33.000Z,279.27
2023-01-11T18:17:39.000Z,279.27
2023-01-11T18:19:05.000Z,279.21
2023-01-11T18:21:11.000Z,279.15
2023-01-11T18:22:38.000Z,279.21
2023-01-11T18:24:44.000Z,279.27
2023-01-11T18:26:11.000Z,279.4
2023-01-11T18:28:17.000Z,279.4
2023-01-11T18:29:43.000Z,279.4
2023-01-11T18:31:49.000Z,279.34
2023-01-11T18:33:16.000Z,279.34
2023-01-11T18:35:22.000Z,279.34
2023-01-11T18:36:48.000Z,279.34
2023-01-11T18:38:55.000Z,279.27
2023-01-11T18:40:21.000Z,279.27
2023-01-11T18:42:27.000Z,279.34
2023-01-11T18:43:54.000Z,279.34
2023-01-11T18:46:00.000Z,279.34
2023-01-11T18:48:51.000Z,279.46
2023-01-11T18:50:18.000Z,279.59
2023-01-11T18:52:24.000Z,279.46
2023-01-11T18:53:50.000Z,279.52
2023-01-11T18:55:56.000Z,279.52
2023-01-11T18:57:23.000Z,279.46
2023-01-11T18:59:29.000Z,279.4
2023-01-11T19:00:55.000Z,279.4
2023-01-11T19:03:02.000Z,279.4
2023-01-11T19:04:28.000Z,279.34
2023-01-11T19:06:34.000Z,279.4
2023-01-11T19:08:01.000Z,279.34
2023-01-11T19:10:07.000Z,279.34
2023-01-11T19:11:33.000Z,279.34
2023-01-11T19:13:40.000Z,279.4
2023-01-11T19:15:07.000Z,279.4
2023-01-11T19:17:14.000Z,279.27
2023-01-11T19:18:40.000Z,279.4
2023-01-11T19:20:46.000Z,279.34
2023-01-11T19:22:13.000Z,279.34
2023-01-11T19:24:19.000Z,279.4
2023-01-11T19:27:10.000Z,279.34
2023-01-11T19:28:37.000Z,279.34
2023-01-11T19:30:43.000Z,279.34
2023-01-11T19:32:09.000Z,279.34
2023-01-11T19:34:16.000Z,279.27
2023-01-11T19:35:42.000Z,279.27
2023-01-11T19:37:48.000Z,279.27
2023-01-11T19:39:15.000Z,279.21
2023-01-11T19:41:21.000Z,279.21
2023-01-11T19:42:47.000Z,279.21
2023-01-11T19:44:53.000Z,279.09
2023-01-11T19:46:20.000Z,279.15
2023-01-11T19:48:36.000Z,279.09
2023-01-11T19:50:02.000Z,279.09
2023-01-11T19:52:08.000Z,279.09
2023-01-11T19:53:35.000Z,279.09
2023-01-11T19:55:41.000Z,279.02
2023-01-11T19:57:07.000Z,278.96
2023-01-11T19:59:14.000Z,278.96
2023-01-11T20:00:40.000Z,278.9
2023-01-11T20:02:46.000Z,278.9
2023-01-11T20:05:38.000Z,278.9
2023-01-11T20:07:04.000Z,278.96
2023-01-11T20:09:10.000Z,278.96
2023-01-11T20:10:37.000Z,278.9
2023-01-11T20:12:43.000Z,278.84
2023-01-11T20:14:10.000Z,278.9
2023-01-11T20:16:16.000Z,278.96
2023-01-11T20:17:42.000Z,278.96
2023-01-11T20:19:48.000Z,279.09
2023-01-11T20:21:15.000Z,279.09
2023-01-11T20:23:21.000Z,279.02
2023-01-11T20:24:47.000Z,279.02
2023-01-11T20:26:53.000Z,279.09
2023-01-11T20:28:20.000Z,279.15
2023-01-11T20:30:26.000Z,279.15
2023-01-11T20:31:53.000Z,279.15
2023-01-11T20:33:59.000Z,279.09
2023-01-11T20:35:26.000Z,279.15
2023-01-11T20:37:32.000Z,279.09
2023-01-11T20:38:58.000Z,279.15
2023-01-11T20:41:05.000Z,279.15
2023-01-11T20:43:56.000Z,279.02
2023-01-11T20:45:22.000Z,279.15
2023-01-11T20:47:28.000Z,279.02
2023-01-11T20:48:55.000Z,279.02
2023-01-11T20:51:01.000Z,278.96
2023-01-11T20:52:27.000Z,279.02
2023-01-11T20:54:34.000Z,279.02
2023-01-11T20:56:00.000Z,278.96
2023-01-11T20:58:06.000Z,278.9
2023-01-11T20:59:33.000Z,278.9
2023-01-11T21:01:39.000Z,278.84
2023-01-11T21:03:06.000Z,278.9
2023-01-11T21:05:12.000Z,278.84
2023-01-11T21:06:38.000Z,278.84
2023-01-11T21:08:45.000Z,278.96
2023-01-11T21:10:11.000Z,278.96
2023-01-11T21:12:17.000Z,278.9
2023-01-11T21:13:44.000Z,278.77
2023-01-11T21:15:50.000Z,278.77
2023-01-11T21:17:16.000Z,278.77
2023-01-11T21:19:23.000Z,278.84
2023-01-11T21:22:15.000Z,278.71
2023-01-11T21:23:41.000Z,278.65
2023-01-11T21:25:47.000Z,278.65
2023-01-11T21:27:14.000Z,278.71
2023-01-11T21:29:20.000Z,278.65
2023-01-11T21:30:46.000Z,278.65
2023-01-11T21:32:53.000Z,278.65
2023-01-11T21:34:19.000Z,278.52
2023-01-11T21:36:25.000Z,278.46
2023-01-11T21:37:52.000Z,278.46
2023-01-11T21:39:58.000Z,278.4
2023-01-11T21:41:24.000Z,278.4
2023-01-11T21:43:30.000Z,278.4
2023-01-11T21:44:57.000Z,278.46
2023-01-11T21:47:03.000Z,278.46
2023-01-11T21:48:29.000Z,278.46
2023-01-11T21:50:36.000Z,278.4
2023-01-11T21:52:02.000Z,278.4
2023-01-11T21:54:08.000Z,278.4
2023-01-11T21:55:35.000Z,278.46
2023-01-11T21:57:41.000Z,278.4
2023-01-11T22:00:32.000Z,278.4
2023-01-11T22:01:59.000Z,278.4
2023-01-11T22:04:05.000Z,278.4
2023-01-11T22:05:32.000Z,278.4
2023-01-11T22:07:38.000Z,278.34
2023-01-11T22:09:04.000Z,278.34
2023-01-11T22:11:11.000Z,278.34
2023-01-11T22:12:37.000Z,278.4
2023-01-11T22:14:43.000Z,278.4
2023-01-11T22:16:10.000Z,278.4
2023-01-11T22:18:16.000Z,278.4
2023-01-11T22:19:42.000Z,278.52
2023-01-11T22:21:49.000Z,278.59
2023-01-11T22:23:15.000Z,278.59
2023-01-11T22:25:21.000Z,278.52
2023-01-11T22:26:48.000Z,278.52
2023-01-11T22:28:54.000Z,278.59
2023-01-11T22:30:21.000Z,278.65
2023-01-11T22:32:27.000Z,278.65
2023-01-11T22:33:54.000Z,278.65
2023-01-11T22:36:00.000Z,278.71
2023-01-11T22:38:51.000Z,278.84
2023-01-11T22:40:17.000Z,278.77
2023-01-11T22:42:23.000Z,278.84
2023-01-11T22:43:50.000Z,278.9
2023-01-11T22:45:56.000Z,278.96
2023-01-11T22:47:23.000Z,279.02
2023-01-11T22:49:29.000Z,278.96
2023-01-11T22:50:55.000Z,278.96
2023-01-11T22:53:01.000Z,279.02
2023-01-11T22:54:28.000Z,279.09
2023-01-11T22:56:34.000Z,279.02
2023-01-11T22:58:00.000Z,279.02
2023-01-11T23:00:06.000Z,279.09
2023-01-11T23:01:33.000Z,279.09
2023-01-11T23:03:39.000Z,279.02